Time;durP1;ratioP1;P1;durP2;ratioP2;P2;SDS_P1;SDS_P2;PMS_P1;PMS_P2;Temp;Humidity;BMP_temperature;BMP_pressure;BME280_temperature;BME280_humidity;BME280_pressure;Samples;Min_cycle;Max_cycle;Signal;HPM_P1;HPM_P2
2021/11/25 00:01:23;;;;;;;61.03;34.30;;;;;;;;;;5067928;28;20040;-75
2021/11/25 00:03:49;;;;;;;56.72;32.35;;;;;;;;;;5070558;28;20049;-75
2021/11/25 00:06:15;;;;;;;53.45;30.63;;;;;;;;;;5067595;28;20040;-75
2021/11/25 00:08:42;;;;;;;60.40;31.77;;;;;;;;;;5050895;28;20088;-75
2021/11/25 00:11:08;;;;;;;58.92;32.78;;;;;;;;;;5067982;28;20040;-76
2021/11/25 00:13:34;;;;;;;57.90;32.92;;;;;;;;;;5066744;28;20504;-76
2021/11/25 00:16:01;;;;;;;57.33;33.80;;;;;;;;;;5068445;28;20060;-76
2021/11/25 00:18:28;;;;;;;60.60;33.75;;;;;;;;;;5065610;28;20045;-76
2021/11/25 00:20:54;;;;;;;59.25;33.60;;;;;;;;;;5065480;28;20063;-76
2021/11/25 00:23:20;;;;;;;61.72;34.55;;;;;;;;;;5047350;28;20064;-76
2021/11/25 00:25:46;;;;;;;55.92;32.47;;;;;;;;;;5065653;28;20040;-75
2021/11/25 00:28:12;;;;;;;58.72;33.95;;;;;;;;;;5063746;28;20149;-75
2021/11/25 00:30:38;;;;;;;64.43;35.67;;;;;;;;;;5044406;28;20043;-76
2021/11/25 00:33:05;;;;;;;58.45;32.42;;;;;;;;;;5046909;28;20464;-75
2021/11/25 00:35:31;;;;;;;66.50;34.80;;;;;;;;;;5043598;28;20136;-75
2021/11/25 00:37:57;;;;;;;59.28;33.38;;;;;;;;;;5057148;28;20063;-75
2021/11/25 00:40:23;;;;;;;61.22;33.25;;;;;;;;;;5095592;28;20044;-75
2021/11/25 00:42:49;;;;;;;65.03;35.60;;;;;;;;;;5097277;28;20029;-75
2021/11/25 00:45:16;;;;;;;65.35;34.83;;;;;;;;;;5058101;28;20102;-75
2021/11/25 00:47:42;;;;;;;66.40;36.05;;;;;;;;;;5095603;28;20412;-75
2021/11/25 00:50:09;;;;;;;66.53;35.50;;;;;;;;;;5057070;28;20033;-75
2021/11/25 00:52:35;;;;;;;67.32;36.92;;;;;;;;;;5064629;28;20051;-75
2021/11/25 00:55:01;;;;;;;67.78;36.40;;;;;;;;;;5064964;28;20041;-75
2021/11/25 00:57:27;;;;;;;70.95;36.05;;;;;;;;;;5052792;28;20037;-75
2021/11/25 00:59:53;;;;;;;66.30;35.85;;;;;;;;;;5061933;28;20090;-75
2021/11/25 01:02:20;;;;;;;68.18;35.70;;;;;;;;;;5068986;28;20082;-75
2021/11/25 01:04:46;;;;;;;69.55;36.63;;;;;;;;;;5068675;28;20075;-75
2021/11/25 01:07:12;;;;;;;72.13;36.15;;;;;;;;;;5063899;28;20058;-75
2021/11/25 01:09:39;;;;;;;72.22;36.10;;;;;;;;;;5065139;28;20068;-75
2021/11/25 01:12:06;;;;;;;75.80;38.47;;;;;;;;;;5083594;28;20048;-75
2021/11/25 01:14:33;;;;;;;78.68;39.50;;;;;;;;;;5078477;28;20530;-76
2021/11/25 01:17:00;;;;;;;78.88;38.80;;;;;;;;;;5038667;28;20537;-75
2021/11/25 01:19:26;;;;;;;84.60;40.47;;;;;;;;;;5047695;28;20058;-75
2021/11/25 01:21:52;;;;;;;80.78;38.63;;;;;;;;;;5068237;28;20040;-75
2021/11/25 01:24:18;;;;;;;85.38;40.42;;;;;;;;;;5067212;28;20419;-76
2021/11/25 01:26:45;;;;;;;82.18;39.50;;;;;;;;;;5074545;28;20128;-76
2021/11/25 01:29:11;;;;;;;87.60;39.65;;;;;;;;;;5070617;28;20486;-76
2021/11/25 01:31:38;;;;;;;79.35;37.72;;;;;;;;;;5095575;28;20142;-75
2021/11/25 01:34:04;;;;;;;85.22;39.72;;;;;;;;;;5069437;28;20121;-75
2021/11/25 01:36:30;;;;;;;85.93;38.88;;;;;;;;;;5080986;28;20049;-75
2021/11/25 01:38:56;;;;;;;90.50;39.97;;;;;;;;;;5096446;28;20052;-75
2021/11/25 01:41:22;;;;;;;92.60;41.55;;;;;;;;;;5069303;28;20038;-75
2021/11/25 01:43:48;;;;;;;85.32;39.97;;;;;;;;;;5070810;28;20044;-75
2021/11/25 01:46:16;;;;;;;92.85;41.33;;;;;;;;;;5069237;28;20036;-75
2021/11/25 01:48:43;;;;;;;94.70;41.97;;;;;;;;;;5065750;28;20090;-75
2021/11/25 01:51:09;;;;;;;94.28;41.92;;;;;;;;;;5067616;28;20053;-75
2021/11/25 01:53:35;;;;;;;101.07;43.35;;;;;;;;;;5067481;28;20036;-75
2021/11/25 01:56:02;;;;;;;103.85;43.08;;;;;;;;;;5061934;28;20083;-75
2021/11/25 01:58:28;;;;;;;106.22;42.95;;;;;;;;;;5060823;28;20052;-75
2021/11/25 02:00:55;;;;;;;109.88;44.03;;;;;;;;;;5044397;28;20036;-75
2021/11/25 02:03:23;;;;;;;108.15;44.38;;;;;;;;;;5065110;28;20040;-75
2021/11/25 02:05:49;;;;;;;102.50;42.42;;;;;;;;;;5041300;28;20048;-75
2021/11/25 02:08:16;;;;;;;109.93;40.88;;;;;;;;;;5049696;28;20383;-74
2021/11/25 02:10:49;;;;;;;116.72;44.65;;;;;;;;;;5062937;28;20052;-74
2021/11/25 02:13:15;;;;;;;121.05;43.03;;;;;;;;;;5061004;28;20071;-74
2021/11/25 02:15:41;;;;;;;124.80;46.22;;;;;;;;;;5095369;28;20070;-74
2021/11/25 02:18:09;;;;;;;109.15;43.72;;;;;;;;;;5092886;28;20078;-74
2021/11/25 02:20:40;;;;;;;100.78;42.15;;;;;;;;;;5060807;28;20088;-75
2021/11/25 02:23:07;;;;;;;112.50;43.88;;;;;;;;;;5087093;28;20084;-74
2021/11/25 02:25:33;;;;;;;120.68;45.90;;;;;;;;;;5094078;28;20124;-75
2021/11/25 02:28:00;;;;;;;112.35;43.85;;;;;;;;;;5096442;28;20058;-75
2021/11/25 02:30:26;;;;;;;118.55;44.55;;;;;;;;;;5061279;28;20060;-74
2021/11/25 02:32:52;;;;;;;102.38;43.47;;;;;;;;;;5066798;28;20518;-74
2021/11/25 02:35:20;;;;;;;126.30;46.15;;;;;;;;;;5095100;28;20106;-74
2021/11/25 02:37:46;;;;;;;131.20;47.08;;;;;;;;;;5062520;28;20055;-74
2021/11/25 02:40:14;;;;;;;119.05;44.53;;;;;;;;;;5046309;28;20147;-74
2021/11/25 02:42:40;;;;;;;132.48;45.58;;;;;;;;;;5055287;28;20032;-75
2021/11/25 02:45:07;;;;;;;114.18;43.53;;;;;;;;;;5060428;28;20495;-74
2021/11/25 02:47:33;;;;;;;129.68;46.17;;;;;;;;;;5094694;28;20744;-74
2021/11/25 02:49:59;;;;;;;123.28;45.25;;;;;;;;;;5101188;28;20041;-74
2021/11/25 02:52:25;;;;;;;129.13;47.25;;;;;;;;;;5056997;28;20094;-74
2021/11/25 02:54:52;;;;;;;116.97;44.25;;;;;;;;;;5058010;28;20033;-74
2021/11/25 02:57:18;;;;;;;126.80;47.30;;;;;;;;;;5091006;28;20371;-74
2021/11/25 02:59:45;;;;;;;129.85;47.35;;;;;;;;;;5060200;28;20365;-73
2021/11/25 03:02:11;;;;;;;139.23;48.08;;;;;;;;;;5035192;28;20120;-74
2021/11/25 03:04:37;;;;;;;125.95;45.50;;;;;;;;;;5065739;28;20044;-75
2021/11/25 03:07:03;;;;;;;148.00;48.22;;;;;;;;;;5097291;28;20051;-74
2021/11/25 03:09:29;;;;;;;150.77;48.83;;;;;;;;;;5036768;28;20052;-74
2021/11/25 03:11:55;;;;;;;133.82;47.15;;;;;;;;;;5049504;28;20028;-73
2021/11/25 03:14:22;;;;;;;148.95;49.90;;;;;;;;;;5073459;28;20098;-75
2021/11/25 03:16:48;;;;;;;144.02;48.63;;;;;;;;;;5084489;28;20090;-74
2021/11/25 03:19:14;;;;;;;148.70;48.60;;;;;;;;;;5058863;28;20083;-74
2021/11/25 03:21:41;;;;;;;123.88;45.30;;;;;;;;;;5065297;28;20052;-74
2021/11/25 03:24:07;;;;;;;140.98;48.20;;;;;;;;;;5067298;28;20048;-74
2021/11/25 03:26:33;;;;;;;145.40;47.80;;;;;;;;;;5062490;28;20049;-75
2021/11/25 03:29:00;;;;;;;150.50;47.78;;;;;;;;;;5071718;28;20037;-75
2021/11/25 03:31:28;;;;;;;158.52;49.70;;;;;;;;;;5099481;28;20388;-74
2021/11/25 03:33:55;;;;;;;134.85;47.92;;;;;;;;;;5057126;28;20070;-74
2021/11/25 03:36:21;;;;;;;149.27;48.90;;;;;;;;;;5066973;28;20029;-75
2021/11/25 03:38:47;;;;;;;160.82;50.80;;;;;;;;;;5047936;28;20154;-74
2021/11/25 03:41:14;;;;;;;148.30;48.72;;;;;;;;;;5073667;28;20033;-74
2021/11/25 03:43:40;;;;;;;160.45;51.40;;;;;;;;;;5082386;28;20044;-75
2021/11/25 03:46:06;;;;;;;160.27;51.17;;;;;;;;;;5081160;28;20446;-74
2021/11/25 03:48:32;;;;;;;143.00;49.17;;;;;;;;;;5051973;28;20066;-75
2021/11/25 03:50:59;;;;;;;132.18;49.15;;;;;;;;;;5068303;28;20035;-75
2021/11/25 03:53:26;;;;;;;141.85;48.53;;;;;;;;;;5064098;28;20116;-75
2021/11/25 03:55:52;;;;;;;152.20;50.90;;;;;;;;;;5069061;28;20365;-75
2021/11/25 03:58:18;;;;;;;139.52;49.42;;;;;;;;;;5068797;28;20040;-74
2021/11/25 04:00:45;;;;;;;131.77;48.05;;;;;;;;;;5052359;28;20135;-74
2021/11/25 04:03:11;;;;;;;137.93;47.17;;;;;;;;;;5066453;28;20183;-74
2021/11/25 04:05:38;;;;;;;140.27;49.20;;;;;;;;;;5065944;28;20071;-75
2021/11/25 04:08:04;;;;;;;140.43;48.17;;;;;;;;;;5067253;28;20128;-74
2021/11/25 04:10:30;;;;;;;135.20;48.70;;;;;;;;;;5066764;28;20079;-74
2021/11/25 04:12:56;;;;;;;151.40;49.38;;;;;;;;;;5073913;28;20043;-73
2021/11/25 04:15:22;;;;;;;138.55;48.88;;;;;;;;;;5077063;28;20107;-74
2021/11/25 04:17:49;;;;;;;148.35;48.95;;;;;;;;;;5065252;28;20101;-74
2021/11/25 04:20:15;;;;;;;149.48;49.75;;;;;;;;;;5067122;28;20218;-75
2021/11/25 04:22:42;;;;;;;140.68;47.80;;;;;;;;;;5067715;28;20564;-75
2021/11/25 04:25:08;;;;;;;153.80;51.67;;;;;;;;;;5088476;28;20570;-75
2021/11/25 04:27:35;;;;;;;156.95;52.17;;;;;;;;;;5051850;28;20503;-75
2021/11/25 04:30:10;;;;;;;159.05;52.75;;;;;;;;;;5068163;28;20072;-75
2021/11/25 04:35:55;;;;;;;158.10;50.60;;;;;;;;;;5066094;28;20052;-75
2021/11/25 04:38:18;;;;;;;171.68;52.00;;;;;;;;;;5065838;28;20048;-74
2021/11/25 04:40:47;;;;;;;164.35;53.28;;;;;;;;;;5066487;28;20048;-75
2021/11/25 04:43:13;;;;;;;164.98;54.05;;;;;;;;;;5051775;28;20400;-74
2021/11/25 04:45:40;;;;;;;166.00;54.85;;;;;;;;;;5051495;28;20044;-74
2021/11/25 04:48:07;;;;;;;156.27;53.97;;;;;;;;;;5047556;28;20549;-75
2021/11/25 04:50:34;;;;;;;169.50;53.65;;;;;;;;;;5056662;28;20099;-75
2021/11/25 04:53:00;;;;;;;169.85;53.90;;;;;;;;;;5060264;28;20060;-75
2021/11/25 04:55:26;;;;;;;177.55;55.53;;;;;;;;;;5055114;28;20476;-74
2021/11/25 04:57:52;;;;;;;180.30;54.38;;;;;;;;;;5072564;28;20040;-74
2021/11/25 05:00:19;;;;;;;181.35;56.05;;;;;;;;;;5051143;28;20033;-75
2021/11/25 05:02:45;;;;;;;192.18;56.28;;;;;;;;;;5097044;28;20048;-75
2021/11/25 05:05:12;;;;;;;202.13;57.63;;;;;;;;;;5093643;28;20372;-74
2021/11/25 05:07:38;;;;;;;201.30;57.38;;;;;;;;;;5071217;28;20105;-74
2021/11/25 05:10:05;;;;;;;173.95;53.97;;;;;;;;;;5063854;28;20044;-74
2021/11/25 05:12:31;;;;;;;184.48;57.53;;;;;;;;;;5061875;28;20094;-74
2021/11/25 05:14:57;;;;;;;190.48;54.83;;;;;;;;;;5061651;28;20450;-75
2021/11/25 05:17:24;;;;;;;191.90;58.15;;;;;;;;;;5049522;28;20044;-75
2021/11/25 05:19:50;;;;;;;195.52;58.47;;;;;;;;;;5092820;28;20052;-74
2021/11/25 05:22:16;;;;;;;205.93;58.53;;;;;;;;;;5044061;28;20048;-75
2021/11/25 05:24:43;;;;;;;215.63;58.70;;;;;;;;;;5057491;28;20400;-74
2021/11/25 05:27:09;;;;;;;196.40;58.58;;;;;;;;;;5047700;28;20048;-74
2021/11/25 05:29:36;;;;;;;205.70;58.63;;;;;;;;;;5061965;28;20044;-74
2021/11/25 05:32:04;;;;;;;216.27;60.83;;;;;;;;;;5096711;28;20045;-75
2021/11/25 05:34:30;;;;;;;195.77;57.05;;;;;;;;;;5066190;28;20496;-78
2021/11/25 05:36:56;;;;;;;206.27;59.83;;;;;;;;;;5094939;28;20449;-73
2021/11/25 05:39:22;;;;;;;201.30;56.78;;;;;;;;;;5049089;28;20076;-73
2021/11/25 05:41:48;;;;;;;196.88;57.70;;;;;;;;;;5050886;28;20094;-73
2021/11/25 05:44:15;;;;;;;216.30;60.53;;;;;;;;;;5058117;28;20140;-73
2021/11/25 05:46:41;;;;;;;197.88;58.78;;;;;;;;;;5061009;28;20430;-73
2021/11/25 05:49:07;;;;;;;222.48;61.47;;;;;;;;;;5063008;28;20053;-74
2021/11/25 05:51:34;;;;;;;208.75;59.20;;;;;;;;;;5098176;28;20052;-73
2021/11/25 05:54:00;;;;;;;207.15;63.50;;;;;;;;;;5060880;28;20049;-74
2021/11/25 05:56:26;;;;;;;208.77;59.67;;;;;;;;;;5072910;28;20135;-75
2021/11/25 05:58:54;;;;;;;227.80;63.15;;;;;;;;;;5062117;28;20385;-74
2021/11/25 06:01:22;;;;;;;213.93;62.03;;;;;;;;;;5061968;28;20037;-74
2021/11/25 06:03:49;;;;;;;209.38;60.42;;;;;;;;;;5067564;28;20048;-74
2021/11/25 06:06:15;;;;;;;226.93;62.40;;;;;;;;;;5066368;28;20522;-75
2021/11/25 06:08:41;;;;;;;228.95;62.63;;;;;;;;;;5090277;28;20099;-73
2021/11/25 06:11:07;;;;;;;232.05;62.92;;;;;;;;;;5076302;28;20047;-74
2021/11/25 06:13:33;;;;;;;224.18;62.83;;;;;;;;;;5060498;28;20048;-74
2021/11/25 06:15:59;;;;;;;222.82;63.30;;;;;;;;;;5058226;28;20080;-74
2021/11/25 06:18:25;;;;;;;210.82;62.50;;;;;;;;;;5094304;28;20479;-78
2021/11/25 06:20:51;;;;;;;221.35;63.00;;;;;;;;;;5093128;28;20080;-74
2021/11/25 06:23:17;;;;;;;223.95;61.58;;;;;;;;;;5064309;28;20559;-75
2021/11/25 06:25:44;;;;;;;231.52;67.07;;;;;;;;;;5067772;28;20044;-73
2021/11/25 06:28:10;;;;;;;247.10;66.22;;;;;;;;;;5060115;28;20507;-74
2021/11/25 06:30:36;;;;;;;257.95;67.75;;;;;;;;;;5071981;28;20048;-74
2021/11/25 06:33:02;;;;;;;246.77;67.95;;;;;;;;;;5070071;28;20047;-73
2021/11/25 06:35:29;;;;;;;237.63;67.50;;;;;;;;;;5071126;28;20048;-73
2021/11/25 06:37:55;;;;;;;263.30;71.20;;;;;;;;;;5065302;28;20048;-73
2021/11/25 06:40:25;;;;;;;254.15;66.50;;;;;;;;;;5062279;28;20044;-73
2021/11/25 06:42:51;;;;;;;242.27;67.70;;;;;;;;;;5048531;28;20115;-73
2021/11/25 06:45:17;;;;;;;265.42;69.90;;;;;;;;;;5052617;28;20049;-73
2021/11/25 06:47:46;;;;;;;265.60;71.18;;;;;;;;;;5062688;28;20212;-75
2021/11/25 06:50:12;;;;;;;282.23;69.50;;;;;;;;;;5080201;28;20484;-74
2021/11/25 06:52:38;;;;;;;294.55;72.68;;;;;;;;;;5049855;28;20429;-74
2021/11/25 06:55:05;;;;;;;277.98;72.95;;;;;;;;;;5074184;28;20127;-72
2021/11/25 06:57:31;;;;;;;269.35;70.35;;;;;;;;;;5065457;28;20477;-74
2021/11/25 06:59:58;;;;;;;244.20;68.70;;;;;;;;;;5060785;28;20063;-74
2021/11/25 07:02:24;;;;;;;284.15;71.95;;;;;;;;;;5044111;28;20132;-76
2021/11/25 07:04:50;;;;;;;276.98;74.70;;;;;;;;;;5090460;27;20048;-74
2021/11/25 07:07:16;;;;;;;286.20;71.03;;;;;;;;;;5059747;28;20040;-74
2021/11/25 07:09:42;;;;;;;284.02;70.03;;;;;;;;;;5077361;28;20127;-74
2021/11/25 07:12:09;;;;;;;283.80;72.60;;;;;;;;;;5057306;28;20392;-74
2021/11/25 07:14:35;;;;;;;268.02;71.47;;;;;;;;;;5042510;28;20124;-74
2021/11/25 07:17:01;;;;;;;263.80;69.80;;;;;;;;;;5061238;28;20043;-75
2021/11/25 07:19:28;;;;;;;275.30;71.65;;;;;;;;;;5046001;28;20055;-75
2021/11/25 07:21:54;;;;;;;269.17;71.63;;;;;;;;;;5094426;28;20041;-75
2021/11/25 07:24:20;;;;;;;294.73;74.30;;;;;;;;;;5068941;28;20491;-74
2021/11/25 07:26:46;;;;;;;291.30;74.68;;;;;;;;;;5062250;28;20045;-75
2021/11/25 07:29:12;;;;;;;295.00;75.53;;;;;;;;;;5061151;28;20476;-75
2021/11/25 07:31:38;;;;;;;276.77;73.35;;;;;;;;;;5061200;28;20044;-74
2021/11/25 07:34:05;;;;;;;269.15;71.88;;;;;;;;;;5048230;28;20044;-75
2021/11/25 07:36:31;;;;;;;298.10;72.32;;;;;;;;;;5072917;28;20129;-74
2021/11/25 07:38:57;;;;;;;266.75;72.40;;;;;;;;;;5096357;28;20048;-74
2021/11/25 07:41:23;;;;;;;296.23;72.32;;;;;;;;;;5062043;28;20037;-74
2021/11/25 07:43:49;;;;;;;264.60;71.43;;;;;;;;;;5028201;28;20048;-74
2021/11/25 07:46:15;;;;;;;269.48;71.47;;;;;;;;;;5072805;28;20070;-74
2021/11/25 07:48:41;;;;;;;299.83;72.15;;;;;;;;;;5070754;28;20052;-75
2021/11/25 07:51:07;;;;;;;291.75;75.03;;;;;;;;;;5054685;28;20082;-74
2021/11/25 07:53:35;;;;;;;270.83;73.63;;;;;;;;;;5038906;28;20472;-74
2021/11/25 07:56:01;;;;;;;294.48;76.22;;;;;;;;;;5054815;28;20061;-74
2021/11/25 07:58:28;;;;;;;334.73;79.40;;;;;;;;;;5059350;28;20055;-74
2021/11/25 08:00:56;;;;;;;299.77;78.43;;;;;;;;;;5055612;28;20048;-74
2021/11/25 08:03:22;;;;;;;317.60;78.85;;;;;;;;;;5066719;28;20040;-73
2021/11/25 08:05:48;;;;;;;261.67;73.80;;;;;;;;;;5083052;28;20052;-73
2021/11/25 08:08:14;;;;;;;277.42;74.00;;;;;;;;;;5059139;28;20032;-73
2021/11/25 08:10:41;;;;;;;257.65;72.25;;;;;;;;;;5071940;28;20044;-73
2021/11/25 08:13:08;;;;;;;285.00;73.32;;;;;;;;;;5071639;28;20041;-73
2021/11/25 08:15:34;;;;;;;262.55;71.82;;;;;;;;;;5055538;28;20044;-75
2021/11/25 08:18:01;;;;;;;274.80;72.30;;;;;;;;;;5093267;28;20044;-75
2021/11/25 08:20:27;;;;;;;221.32;66.22;;;;;;;;;;5046042;28;20053;-75
2021/11/25 08:22:53;;;;;;;265.15;72.32;;;;;;;;;;5040046;28;20461;-74
2021/11/25 08:25:21;;;;;;;299.77;84.05;;;;;;;;;;5043439;28;20044;-74
2021/11/25 08:27:47;;;;;;;290.90;80.40;;;;;;;;;;5041839;28;20049;-77
2021/11/25 08:30:14;;;;;;;271.77;73.78;;;;;;;;;;5068562;28;20072;-72
2021/11/25 08:32:41;;;;;;;322.25;79.43;;;;;;;;;;5039020;28;20083;-75
2021/11/25 08:35:08;;;;;;;302.05;80.82;;;;;;;;;;5044993;28;20057;-72
2021/11/25 08:37:34;;;;;;;272.27;76.22;;;;;;;;;;5060856;28;20044;-77
2021/11/25 08:40:00;;;;;;;252.88;73.60;;;;;;;;;;5089183;28;20383;-74
2021/11/25 08:42:26;;;;;;;240.73;70.97;;;;;;;;;;5071013;28;20044;-74
2021/11/25 08:44:52;;;;;;;244.63;70.43;;;;;;;;;;5087663;28;20464;-74
2021/11/25 08:47:19;;;;;;;245.98;73.38;;;;;;;;;;5039630;28;20040;-75
2021/11/25 08:49:45;;;;;;;276.45;76.50;;;;;;;;;;5054428;28;20098;-75
2021/11/25 08:52:11;;;;;;;246.18;72.97;;;;;;;;;;5042071;28;20555;-77
2021/11/25 08:54:37;;;;;;;238.40;68.22;;;;;;;;;;5054661;28;20045;-73
2021/11/25 08:57:04;;;;;;;252.48;70.55;;;;;;;;;;5040041;28;20060;-74
2021/11/25 08:59:30;;;;;;;232.52;67.85;;;;;;;;;;5060523;28;20063;-75
2021/11/25 09:01:56;;;;;;;239.73;67.35;;;;;;;;;;5063841;28;20106;-74
2021/11/25 09:04:22;;;;;;;230.80;64.85;;;;;;;;;;5077546;28;20082;-76
2021/11/25 09:06:48;;;;;;;250.27;67.55;;;;;;;;;;5066192;28;20040;-76
2021/11/25 09:09:15;;;;;;;214.63;62.00;;;;;;;;;;5062334;28;20043;-76
2021/11/25 09:11:42;;;;;;;232.48;65.35;;;;;;;;;;5050544;28;20041;-76
2021/11/25 09:14:08;;;;;;;233.65;65.30;;;;;;;;;;5045755;28;20048;-76
2021/11/25 09:16:34;;;;;;;240.57;64.82;;;;;;;;;;5076552;28;20036;-77
2021/11/25 09:19:00;;;;;;;246.25;65.88;;;;;;;;;;5060855;28;20391;-76
2021/11/25 09:21:27;;;;;;;216.90;63.47;;;;;;;;;;5046745;28;20040;-78
2021/11/25 09:23:53;;;;;;;244.15;65.85;;;;;;;;;;5065671;28;20052;-76
2021/11/25 09:26:20;;;;;;;245.73;67.00;;;;;;;;;;5062349;28;20510;-77
2021/11/25 09:28:47;;;;;;;254.68;67.07;;;;;;;;;;5062757;28;20093;-76
2021/11/25 09:31:18;;;;;;;223.07;63.63;;;;;;;;;;5097002;28;20072;-77
2021/11/25 09:33:44;;;;;;;240.88;64.85;;;;;;;;;;5079142;28;20162;-75
2021/11/25 09:36:11;;;;;;;216.93;62.25;;;;;;;;;;5065482;28;20041;-76
2021/11/25 09:38:37;;;;;;;212.80;60.45;;;;;;;;;;5062597;28;20097;-77
2021/11/25 09:41:03;;;;;;;211.65;60.35;;;;;;;;;;5087732;28;20102;-76
2021/11/25 09:43:30;;;;;;;205.77;59.67;;;;;;;;;;5060039;28;20049;-76
2021/11/25 09:45:56;;;;;;;212.63;58.22;;;;;;;;;;5062693;28;20044;-77
2021/11/25 09:48:24;;;;;;;212.13;58.38;;;;;;;;;;5062270;28;20208;-74
2021/11/25 09:50:51;;;;;;;204.60;57.58;;;;;;;;;;5093540;28;20044;-70
2021/11/25 09:53:18;;;;;;;180.48;56.38;;;;;;;;;;5060094;28;20212;-70
2021/11/25 09:55:47;;;;;;;170.75;51.42;;;;;;;;;;5049879;28;20059;-75
2021/11/25 09:58:14;;;;;;;146.07;48.00;;;;;;;;;;5035541;28;20056;-72
2021/11/25 10:00:42;;;;;;;153.25;50.17;;;;;;;;;;5065049;28;20045;-73
2021/11/25 10:03:11;;;;;;;149.65;48.22;;;;;;;;;;5064833;28;20056;-71
2021/11/25 10:05:37;;;;;;;127.47;44.80;;;;;;;;;;5065969;28;20063;-73
2021/11/25 10:08:22;;;;;;;130.32;44.72;;;;;;;;;;5067150;28;20475;-72
2021/11/25 10:10:56;;;;;;;127.75;43.97;;;;;;;;;;5068729;28;20170;-79
2021/11/25 10:13:26;;;;;;;;;;;;;;;;;;5070396;28;20044;-79
2021/11/25 10:15:56;;;;;;;98.63;37.22;;;;;;;;;;5063297;28;19920;-78
2021/11/25 10:18:23;;;;;;;92.53;37.72;;;;;;;;;;5081402;28;20104;-77
2021/11/25 10:20:50;;;;;;;81.25;34.00;;;;;;;;;;5067296;28;20048;-76
2021/11/25 10:23:25;;;;;;;73.47;31.52;;;;;;;;;;5085559;28;20053;-78
2021/11/25 10:25:55;;;;;;;58.05;24.67;;;;;;;;;;5050932;28;20060;-80
2021/11/25 10:28:25;;;;;;;48.55;22.38;;;;;;;;;;5061110;28;20045;-76
2021/11/25 10:30:53;;;;;;;33.83;16.27;;;;;;;;;;5067990;28;20051;-75
2021/11/25 10:33:24;;;;;;;34.35;14.75;;;;;;;;;;5068053;28;20051;-75
2021/11/25 10:38:57;;;;;;;22.40;9.07;;;;;;;;;;5068683;28;20055;-76
2021/11/25 10:41:24;;;;;;;19.20;6.63;;;;;;;;;;5091837;28;20036;-76
2021/11/25 10:44:25;;;;;;;13.82;4.00;;;;;;;;;;5066714;28;20075;-75
2021/11/25 10:46:55;;;;;;;12.93;2.95;;;;;;;;;;4996058;28;20136;-76
2021/11/25 10:49:39;;;;;;;14.13;1.90;;;;;;;;;;5038005;28;20065;-76
2021/11/25 10:52:29;;;;;;;8.40;1.33;;;;;;;;;;5092641;28;20387;-76
2021/11/25 10:55:00;;;;;;;8.95;1.80;;;;;;;;;;5043390;28;20053;-76
2021/11/25 10:57:42;;;;;;;11.65;1.45;;;;;;;;;;5050454;28;20050;-76
2021/11/25 11:00:13;;;;;;;8.10;1.55;;;;;;;;;;5065550;28;20135;-74
2021/11/25 11:02:40;;;;;;;7.78;1.40;;;;;;;;;;5066853;28;20118;-76
2021/11/25 11:05:10;;;;;;;10.82;1.67;;;;;;;;;;5065906;28;20041;-74
2021/11/25 11:07:38;;;;;;;15.05;1.85;;;;;;;;;;5066539;28;20123;-75
2021/11/25 11:10:25;;;;;;;12.00;1.48;;;;;;;;;;5100803;28;20083;-76
2021/11/25 11:13:13;;;;;;;17.42;1.70;;;;;;;;;;5049879;28;20052;-75
2021/11/25 11:18:42;;;;;;;12.70;2.08;;;;;;;;;;5065522;28;20063;-77
2021/11/25 11:21:08;;;;;;;7.33;1.53;;;;;;;;;;5065210;28;20057;-74
2021/11/25 11:23:35;;;;;;;13.98;1.83;;;;;;;;;;5048991;28;20295;-75
2021/11/25 11:26:01;;;;;;;11.85;2.25;;;;;;;;;;5069779;28;20441;-75
2021/11/25 11:28:28;;;;;;;14.32;1.73;;;;;;;;;;5050390;28;20692;-76
2021/11/25 11:30:54;;;;;;;10.18;1.60;;;;;;;;;;5068449;28;20094;-76
2021/11/25 11:33:20;;;;;;;9.13;2.53;;;;;;;;;;5049777;28;20478;-75
2021/11/25 11:35:47;;;;;;;10.23;1.55;;;;;;;;;;5064226;28;20131;-76
2021/11/25 11:38:14;;;;;;;13.70;2.15;;;;;;;;;;5064947;28;20078;-75
2021/11/25 11:40:42;;;;;;;10.23;1.63;;;;;;;;;;5065701;28;20047;-75
2021/11/25 11:43:08;;;;;;;10.15;1.50;;;;;;;;;;5062937;28;20478;-76
2021/11/25 11:45:37;;;;;;;10.52;1.52;;;;;;;;;;5063158;28;20094;-76
2021/11/25 11:48:05;;;;;;;9.82;1.45;;;;;;;;;;5080439;28;20072;-77
2021/11/25 11:50:42;;;;;;;6.25;1.17;;;;;;;;;;5062336;28;20127;-76
2021/11/25 11:53:09;;;;;;;9.25;1.70;;;;;;;;;;5066308;28;20084;-79
2021/11/25 11:55:37;;;;;;;13.20;1.80;;;;;;;;;;5077741;28;20053;-77
2021/11/25 11:58:23;;;;;;;11.63;1.60;;;;;;;;;;5062271;28;20123;-78
2021/11/25 12:00:50;;;;;;;9.27;1.45;;;;;;;;;;5078469;28;20041;-75
2021/11/25 12:03:36;;;;;;;7.28;1.00;;;;;;;;;;5049470;28;20032;-76
2021/11/25 12:06:03;;;;;;;5.97;1.00;;;;;;;;;;5063741;28;20123;-76
2021/11/25 12:08:33;;;;;;;6.80;1.05;;;;;;;;;;5061787;28;20045;-75
2021/11/25 12:10:59;;;;;;;5.57;0.80;;;;;;;;;;5064481;28;20060;-74
2021/11/25 12:13:31;;;;;;;8.70;1.02;;;;;;;;;;5060618;28;20502;-74
2021/11/25 12:16:15;;;;;;;4.95;0.95;;;;;;;;;;5096347;28;20056;-74
2021/11/25 12:18:42;;;;;;;8.05;0.90;;;;;;;;;;5082993;28;20055;-76
2021/11/25 12:21:08;;;;;;;4.97;1.15;;;;;;;;;;5049436;28;20048;-76
2021/11/25 12:23:35;;;;;;;10.55;1.85;;;;;;;;;;5050956;28;20045;-75
2021/11/25 12:26:02;;;;;;;7.20;1.73;;;;;;;;;;5052363;28;20048;-75
2021/11/25 12:28:29;;;;;;;10.90;3.88;;;;;;;;;;5050604;28;20059;-75
2021/11/25 12:33:46;;;;;;;9.15;1.55;;;;;;;;;;5065386;28;20114;-75
2021/11/25 12:36:49;;;;;;;14.93;1.60;;;;;;;;;;5065894;28;20079;-74
2021/11/25 12:39:34;;;;;;;9.50;1.85;;;;;;;;;;4991408;28;20140;-74
2021/11/25 12:42:00;;;;;;;8.23;1.30;;;;;;;;;;5059940;28;20083;-74
2021/11/25 12:44:26;;;;;;;13.38;1.50;;;;;;;;;;5064974;28;20117;-74
2021/11/25 12:46:52;;;;;;;9.63;1.75;;;;;;;;;;5051633;28;20047;-75
2021/11/25 12:49:19;;;;;;;7.97;1.27;;;;;;;;;;5063731;28;20058;-75
2021/11/25 12:51:45;;;;;;;15.55;1.95;;;;;;;;;;5065044;28;20036;-75
2021/11/25 12:54:13;;;;;;;8.77;1.08;;;;;;;;;;5065883;28;20553;-75
2021/11/25 12:56:42;;;;;;;6.03;1.52;;;;;;;;;;5048711;28;20504;-76
2021/11/25 12:59:12;;;;;;;9.82;2.10;;;;;;;;;;5049834;28;20053;-76
2021/11/25 13:01:39;;;;;;;10.32;1.27;;;;;;;;;;5048797;28;20795;-75
2021/11/25 13:04:09;;;;;;;11.80;2.28;;;;;;;;;;5046678;28;20051;-75
2021/11/25 13:06:36;;;;;;;8.98;1.35;;;;;;;;;;5064355;28;20106;-75
2021/11/25 13:09:07;;;;;;;8.70;1.30;;;;;;;;;;5048827;28;20048;-75
2021/11/25 13:11:34;;;;;;;8.48;1.40;;;;;;;;;;5047302;28;20049;-76
2021/11/25 13:14:08;;;;;;;8.52;1.77;;;;;;;;;;5064588;28;20097;-78
2021/11/25 13:16:45;;;;;;;12.98;1.85;;;;;;;;;;5089337;28;20391;-78
2021/11/25 13:19:13;;;;;;;13.20;2.50;;;;;;;;;;5062862;28;20448;-79
2021/11/25 13:21:46;;;;;;;12.88;1.70;;;;;;;;;;5066849;28;20499;-75
2021/11/25 13:24:12;;;;;;;;;;;;;;;;;;5066449;28;20051;-78
2021/11/25 13:26:53;;;;;;;6.50;1.95;;;;;;;;;;5070316;28;20062;-75
2021/11/25 13:29:28;;;;;;;9.43;1.63;;;;;;;;;;5067524;28;20094;-75
2021/11/25 13:31:54;;;;;;;8.90;1.25;;;;;;;;;;5069592;28;20119;-75
2021/11/25 13:34:20;;;;;;;8.90;1.77;;;;;;;;;;5050479;28;20463;-74
2021/11/25 13:36:51;;;;;;;9.10;2.10;;;;;;;;;;5066683;28;20045;-74
2021/11/25 13:39:22;;;;;;;14.13;1.73;;;;;;;;;;5080911;28;20053;-75
2021/11/25 13:41:50;;;;;;;15.23;2.25;;;;;;;;;;5066415;28;20052;-75
2021/11/25 13:44:17;;;;;;;17.13;2.22;;;;;;;;;;5071037;28;21285;-75
2021/11/25 13:46:44;;;;;;;10.30;1.63;;;;;;;;;;5069511;28;20040;-75
2021/11/25 13:49:11;;;;;;;11.95;2.10;;;;;;;;;;5069516;28;20395;-75
2021/11/25 13:51:42;;;;;;;14.32;2.70;;;;;;;;;;5072101;28;20056;-75
2021/11/25 13:54:08;;;;;;;13.13;1.95;;;;;;;;;;5066255;28;20051;-75
2021/11/25 13:56:34;;;;;;;12.27;1.60;;;;;;;;;;5052947;28;20056;-75
2021/11/25 13:59:01;;;;;;;12.30;1.88;;;;;;;;;;5069731;28;20047;-75
2021/11/25 14:01:29;;;;;;;15.48;2.08;;;;;;;;;;5066060;28;20045;-77
2021/11/25 14:03:55;;;;;;;10.80;1.92;;;;;;;;;;5068106;28;20051;-75
2021/11/25 14:06:22;;;;;;;13.45;2.20;;;;;;;;;;5067650;28;20036;-74
2021/11/25 14:08:49;;;;;;;15.30;1.85;;;;;;;;;;5067459;28;20048;-75
2021/11/25 14:11:15;;;;;;;7.82;1.45;;;;;;;;;;5053007;28;20644;-74
2021/11/25 14:13:42;;;;;;;13.40;2.10;;;;;;;;;;5080359;28;20391;-74
2021/11/25 14:16:19;;;;;;;8.05;1.75;;;;;;;;;;5036531;28;20506;-74
2021/11/25 14:18:46;;;;;;;15.05;2.10;;;;;;;;;;5051307;28;20471;-74
2021/11/25 14:21:12;;;;;;;11.98;1.73;;;;;;;;;;5052395;28;20055;-74
2021/11/25 14:23:38;;;;;;;10.88;2.08;;;;;;;;;;5051265;28;20102;-74
2021/11/25 14:26:16;;;;;;;18.67;2.78;;;;;;;;;;5067423;28;20097;-75
2021/11/25 14:31:28;;;;;;;7.80;1.65;;;;;;;;;;5061410;28;20059;-73
2021/11/25 14:33:55;;;;;;;14.65;1.98;;;;;;;;;;5068355;28;20285;-74